sensor_id;sensor_type;location;lat;lon;timestamp;P1;durP1;ratioP1;P2;durP2;ratioP2
7108;SDS011;29079;41.930;25.558;2023-08-20T00:02:05;22.15;;;17.77;;
7108;SDS011;29079;41.930;25.558;2023-08-20T00:04:55;25.35;;;18.02;;
7108;SDS011;29079;41.930;25.558;2023-08-20T00:07:45;22.25;;;18.50;;
7108;SDS011;29079;41.930;25.558;2023-08-20T00:10:33;21.52;;;19.17;;
7108;SDS011;29079;41.930;25.558;2023-08-20T00:13:22;23.08;;;19.23;;
7108;SDS011;29079;41.930;25.558;2023-08-20T00:16:10;24.00;;;20.33;;
7108;SDS011;29079;41.930;25.558;2023-08-20T00:18:59;26.52;;;19.75;;
7108;SDS011;29079;41.930;25.558;2023-08-20T00:21:47;26.67;;;19.52;;
7108;SDS011;29079;41.930;25.558;2023-08-20T00:24:35;23.63;;;20.35;;
7108;SDS011;29079;41.930;25.558;2023-08-20T00:27:23;20.08;;;18.08;;
7108;SDS011;29079;41.930;25.558;2023-08-20T00:30:12;24.30;;;19.63;;
7108;SDS011;29079;41.930;25.558;2023-08-20T00:33:00;25.23;;;18.83;;
7108;SDS011;29079;41.930;25.558;2023-08-20T00:35:48;25.38;;;19.15;;
7108;SDS011;29079;41.930;25.558;2023-08-20T00:38:36;28.10;;;19.75;;
7108;SDS011;29079;41.930;25.558;2023-08-20T00:41:24;23.55;;;19.23;;
7108;SDS011;29079;41.930;25.558;2023-08-20T00:44:11;20.58;;;18.35;;
7108;SDS011;29079;41.930;25.558;2023-08-20T00:47:01;23.10;;;18.00;;
7108;SDS011;29079;41.930;25.558;2023-08-20T00:49:50;20.63;;;17.80;;
7108;SDS011;29079;41.930;25.558;2023-08-20T00:52:38;22.02;;;18.23;;
7108;SDS011;29079;41.930;25.558;2023-08-20T00:55:26;20.40;;;16.92;;
7108;SDS011;29079;41.930;25.558;2023-08-20T00:58:14;21.25;;;17.20;;
7108;SDS011;29079;41.930;25.558;2023-08-20T01:01:02;21.98;;;17.67;;
7108;SDS011;29079;41.930;25.558;2023-08-20T01:03:51;21.88;;;18.20;;
7108;SDS011;29079;41.930;25.558;2023-08-20T01:06:43;20.63;;;18.05;;
7108;SDS011;29079;41.930;25.558;2023-08-20T01:09:40;24.73;;;19.05;;
7108;SDS011;29079;41.930;25.558;2023-08-20T01:12:37;20.58;;;17.42;;
7108;SDS011;29079;41.930;25.558;2023-08-20T01:15:26;20.10;;;17.85;;
7108;SDS011;29079;41.930;25.558;2023-08-20T01:18:14;20.55;;;17.42;;
7108;SDS011;29079;41.930;25.558;2023-08-20T01:21:04;18.85;;;16.85;;
7108;SDS011;29079;41.930;25.558;2023-08-20T01:24:05;23.00;;;17.70;;
7108;SDS011;29079;41.930;25.558;2023-08-20T01:27:08;23.33;;;17.90;;
7108;SDS011;29079;41.930;25.558;2023-08-20T01:30:08;23.48;;;19.15;;
7108;SDS011;29079;41.930;25.558;2023-08-20T01:32:57;20.48;;;17.70;;
7108;SDS011;29079;41.930;25.558;2023-08-20T01:35:45;25.67;;;17.73;;
7108;SDS011;29079;41.930;25.558;2023-08-20T01:38:33;24.15;;;18.33;;
7108;SDS011;29079;41.930;25.558;2023-08-20T01:41:20;21.83;;;17.80;;
7108;SDS011;29079;41.930;25.558;2023-08-20T01:44:08;20.42;;;17.55;;
7108;SDS011;29079;41.930;25.558;2023-08-20T01:46:57;20.95;;;17.63;;
7108;SDS011;29079;41.930;25.558;2023-08-20T01:49:45;23.13;;;17.70;;
7108;SDS011;29079;41.930;25.558;2023-08-20T01:52:33;20.27;;;17.90;;
7108;SDS011;29079;41.930;25.558;2023-08-20T01:55:21;27.45;;;17.58;;
7108;SDS011;29079;41.930;25.558;2023-08-20T01:58:09;19.58;;;17.58;;
7108;SDS011;29079;41.930;25.558;2023-08-20T02:00:56;19.33;;;16.85;;
7108;SDS011;29079;41.930;25.558;2023-08-20T02:03:46;23.75;;;18.25;;
7108;SDS011;29079;41.930;25.558;2023-08-20T02:06:33;20.83;;;17.48;;
7108;SDS011;29079;41.930;25.558;2023-08-20T02:09:21;19.60;;;17.50;;
7108;SDS011;29079;41.930;25.558;2023-08-20T02:12:10;22.42;;;17.35;;
7108;SDS011;29079;41.930;25.558;2023-08-20T02:14:58;19.55;;;16.92;;
7108;SDS011;29079;41.930;25.558;2023-08-20T02:17:47;19.17;;;16.98;;
7108;SDS011;29079;41.930;25.558;2023-08-20T02:20:36;21.92;;;17.05;;
7108;SDS011;29079;41.930;25.558;2023-08-20T02:23:24;21.90;;;16.98;;
7108;SDS011;29079;41.930;25.558;2023-08-20T02:26:12;19.73;;;16.55;;
7108;SDS011;29079;41.930;25.558;2023-08-20T02:29:01;24.95;;;18.13;;
7108;SDS011;29079;41.930;25.558;2023-08-20T02:31:49;18.65;;;16.50;;
7108;SDS011;29079;41.930;25.558;2023-08-20T02:34:36;18.45;;;15.90;;
7108;SDS011;29079;41.930;25.558;2023-08-20T02:37:26;21.75;;;16.90;;
7108;SDS011;29079;41.930;25.558;2023-08-20T02:40:13;28.00;;;16.98;;
7108;SDS011;29079;41.930;25.558;2023-08-20T02:43:01;22.58;;;17.42;;
7108;SDS011;29079;41.930;25.558;2023-08-20T02:45:49;20.58;;;17.02;;
7108;SDS011;29079;41.930;25.558;2023-08-20T02:48:36;24.73;;;17.40;;
7108;SDS011;29079;41.930;25.558;2023-08-20T02:51:24;19.10;;;16.77;;
7108;SDS011;29079;41.930;25.558;2023-08-20T02:54:13;19.10;;;16.15;;
7108;SDS011;29079;41.930;25.558;2023-08-20T02:57:01;20.60;;;17.45;;
7108;SDS011;29079;41.930;25.558;2023-08-20T02:59:49;19.77;;;17.60;;
7108;SDS011;29079;41.930;25.558;2023-08-20T03:02:37;20.42;;;16.58;;
7108;SDS011;29079;41.930;25.558;2023-08-20T03:05:26;18.48;;;15.82;;
7108;SDS011;29079;41.930;25.558;2023-08-20T03:08:13;20.17;;;16.98;;
7108;SDS011;29079;41.930;25.558;2023-08-20T03:11:03;19.02;;;15.75;;
7108;SDS011;29079;41.930;25.558;2023-08-20T03:13:50;17.88;;;15.77;;
7108;SDS011;29079;41.930;25.558;2023-08-20T03:16:38;20.08;;;16.65;;
7108;SDS011;29079;41.930;25.558;2023-08-20T03:19:26;22.15;;;15.80;;
7108;SDS011;29079;41.930;25.558;2023-08-20T03:22:16;17.80;;;15.90;;
7108;SDS011;29079;41.930;25.558;2023-08-20T03:25:04;17.17;;;15.30;;
7108;SDS011;29079;41.930;25.558;2023-08-20T03:27:54;17.88;;;15.93;;
7108;SDS011;29079;41.930;25.558;2023-08-20T03:30:42;20.67;;;16.38;;
7108;SDS011;29079;41.930;25.558;2023-08-20T03:33:30;20.88;;;15.27;;
7108;SDS011;29079;41.930;25.558;2023-08-20T03:36:18;18.98;;;15.70;;
7108;SDS011;29079;41.930;25.558;2023-08-20T03:39:06;16.63;;;14.85;;
7108;SDS011;29079;41.930;25.558;2023-08-20T03:41:54;20.15;;;17.15;;
7108;SDS011;29079;41.930;25.558;2023-08-20T03:44:43;18.42;;;15.50;;
7108;SDS011;29079;41.930;25.558;2023-08-20T03:47:31;21.60;;;16.58;;
7108;SDS011;29079;41.930;25.558;2023-08-20T03:50:19;23.42;;;18.13;;
7108;SDS011;29079;41.930;25.558;2023-08-20T03:53:07;21.45;;;17.05;;
7108;SDS011;29079;41.930;25.558;2023-08-20T03:55:55;26.45;;;20.40;;
7108;SDS011;29079;41.930;25.558;2023-08-20T03:58:43;18.83;;;15.80;;
7108;SDS011;29079;41.930;25.558;2023-08-20T04:01:32;23.25;;;15.80;;
7108;SDS011;29079;41.930;25.558;2023-08-20T04:04:19;23.17;;;16.45;;
7108;SDS011;29079;41.930;25.558;2023-08-20T04:07:08;20.08;;;16.77;;
7108;SDS011;29079;41.930;25.558;2023-08-20T04:09:56;22.73;;;15.77;;
7108;SDS011;29079;41.930;25.558;2023-08-20T04:12:44;25.77;;;16.05;;
7108;SDS011;29079;41.930;25.558;2023-08-20T04:15:31;19.70;;;15.52;;
7108;SDS011;29079;41.930;25.558;2023-08-20T04:18:21;19.95;;;15.77;;
7108;SDS011;29079;41.930;25.558;2023-08-20T04:21:08;20.20;;;16.10;;
7108;SDS011;29079;41.930;25.558;2023-08-20T04:23:56;22.30;;;15.77;;
7108;SDS011;29079;41.930;25.558;2023-08-20T04:26:44;20.60;;;16.33;;
7108;SDS011;29079;41.930;25.558;2023-08-20T04:29:32;22.38;;;16.33;;
7108;SDS011;29079;41.930;25.558;2023-08-20T04:32:20;20.17;;;15.27;;
7108;SDS011;29079;41.930;25.558;2023-08-20T04:35:09;19.60;;;16.15;;
7108;SDS011;29079;41.930;25.558;2023-08-20T04:37:57;22.45;;;15.52;;
7108;SDS011;29079;41.930;25.558;2023-08-20T04:40:45;16.92;;;14.10;;
7108;SDS011;29079;41.930;25.558;2023-08-20T04:43:33;20.45;;;14.13;;
7108;SDS011;29079;41.930;25.558;2023-08-20T04:46:21;18.33;;;14.07;;
7108;SDS011;29079;41.930;25.558;2023-08-20T04:49:09;15.93;;;13.82;;
7108;SDS011;29079;41.930;25.558;2023-08-20T04:51:58;19.80;;;14.20;;
7108;SDS011;29079;41.930;25.558;2023-08-20T04:54:45;18.85;;;12.73;;
7108;SDS011;29079;41.930;25.558;2023-08-20T04:57:33;17.33;;;12.07;;
7108;SDS011;29079;41.930;25.558;2023-08-20T05:00:22;13.40;;;12.00;;
7108;SDS011;29079;41.930;25.558;2023-08-20T05:03:10;13.48;;;11.75;;
7108;SDS011;29079;41.930;25.558;2023-08-20T05:05:57;20.60;;;11.98;;
7108;SDS011;29079;41.930;25.558;2023-08-20T05:08:46;13.93;;;12.52;;
7108;SDS011;29079;41.930;25.558;2023-08-20T05:11:34;14.70;;;11.88;;
7108;SDS011;29079;41.930;25.558;2023-08-20T05:14:22;14.85;;;12.05;;
7108;SDS011;29079;41.930;25.558;2023-08-20T05:17:09;14.30;;;11.73;;
7108;SDS011;29079;41.930;25.558;2023-08-20T05:19:57;14.38;;;12.30;;
7108;SDS011;29079;41.930;25.558;2023-08-20T05:22:45;16.90;;;13.80;;
7108;SDS011;29079;41.930;25.558;2023-08-20T05:25:34;18.65;;;13.38;;
7108;SDS011;29079;41.930;25.558;2023-08-20T05:28:22;14.68;;;12.15;;
7108;SDS011;29079;41.930;25.558;2023-08-20T05:31:10;19.63;;;13.10;;
7108;SDS011;29079;41.930;25.558;2023-08-20T05:33:58;16.73;;;12.57;;
7108;SDS011;29079;41.930;25.558;2023-08-20T05:36:46;16.73;;;13.65;;
7108;SDS011;29079;41.930;25.558;2023-08-20T05:39:36;21.38;;;13.48;;
7108;SDS011;29079;41.930;25.558;2023-08-20T05:42:26;16.67;;;13.45;;
7108;SDS011;29079;41.930;25.558;2023-08-20T05:45:14;15.07;;;13.57;;
7108;SDS011;29079;41.930;25.558;2023-08-20T05:48:02;17.90;;;14.25;;
7108;SDS011;29079;41.930;25.558;2023-08-20T05:50:50;17.02;;;13.10;;
7108;SDS011;29079;41.930;25.558;2023-08-20T05:53:37;15.60;;;13.48;;
7108;SDS011;29079;41.930;25.558;2023-08-20T05:56:25;19.30;;;14.25;;
7108;SDS011;29079;41.930;25.558;2023-08-20T05:59:14;17.23;;;13.18;;
7108;SDS011;29079;41.930;25.558;2023-08-20T06:02:02;16.05;;;13.77;;
7108;SDS011;29079;41.930;25.558;2023-08-20T06:04:50;22.35;;;14.65;;
7108;SDS011;29079;41.930;25.558;2023-08-20T06:07:38;16.38;;;13.52;;
7108;SDS011;29079;41.930;25.558;2023-08-20T06:10:26;14.30;;;12.73;;
7108;SDS011;29079;41.930;25.558;2023-08-20T06:13:14;13.82;;;12.07;;
7108;SDS011;29079;41.930;25.558;2023-08-20T06:16:03;14.98;;;13.40;;
7108;SDS011;29079;41.930;25.558;2023-08-20T06:18:51;16.15;;;12.70;;
7108;SDS011;29079;41.930;25.558;2023-08-20T06:21:42;19.50;;;13.52;;
7108;SDS011;29079;41.930;25.558;2023-08-20T06:24:29;17.50;;;12.45;;
7108;SDS011;29079;41.930;25.558;2023-08-20T06:27:17;14.60;;;13.02;;
7108;SDS011;29079;41.930;25.558;2023-08-20T06:30:05;16.60;;;13.00;;
7108;SDS011;29079;41.930;25.558;2023-08-20T06:32:56;15.98;;;13.55;;
7108;SDS011;29079;41.930;25.558;2023-08-20T06:35:43;16.23;;;13.30;;
7108;SDS011;29079;41.930;25.558;2023-08-20T06:38:31;18.48;;;13.38;;
7108;SDS011;29079;41.930;25.558;2023-08-20T06:41:19;19.05;;;12.95;;
7108;SDS011;29079;41.930;25.558;2023-08-20T06:44:06;21.92;;;14.38;;
7108;SDS011;29079;41.930;25.558;2023-08-20T06:46:54;24.50;;;14.20;;
7108;SDS011;29079;41.930;25.558;2023-08-20T06:49:43;17.40;;;13.32;;
7108;SDS011;29079;41.930;25.558;2023-08-20T06:52:31;16.90;;;14.05;;
7108;SDS011;29079;41.930;25.558;2023-08-20T06:55:19;15.35;;;13.77;;
7108;SDS011;29079;41.930;25.558;2023-08-20T06:58:06;17.60;;;15.25;;
7108;SDS011;29079;41.930;25.558;2023-08-20T07:00:54;19.05;;;13.55;;
7108;SDS011;29079;41.930;25.558;2023-08-20T07:03:42;15.45;;;12.95;;
7108;SDS011;29079;41.930;25.558;2023-08-20T07:06:32;16.20;;;13.65;;
7108;SDS011;29079;41.930;25.558;2023-08-20T07:09:19;18.15;;;13.50;;
7108;SDS011;29079;41.930;25.558;2023-08-20T07:12:07;19.70;;;14.25;;
7108;SDS011;29079;41.930;25.558;2023-08-20T07:14:55;18.33;;;14.18;;
7108;SDS011;29079;41.930;25.558;2023-08-20T07:17:42;20.08;;;14.93;;
7108;SDS011;29079;41.930;25.558;2023-08-20T07:20:31;15.77;;;13.27;;
7108;SDS011;29079;41.930;25.558;2023-08-20T07:23:20;16.77;;;14.95;;
7108;SDS011;29079;41.930;25.558;2023-08-20T07:26:10;17.50;;;14.00;;
7108;SDS011;29079;41.930;25.558;2023-08-20T07:28:58;54.20;;;39.72;;
7108;SDS011;29079;41.930;25.558;2023-08-20T07:31:46;15.80;;;14.13;;
7108;SDS011;29079;41.930;25.558;2023-08-20T07:34:34;18.70;;;12.23;;
7108;SDS011;29079;41.930;25.558;2023-08-20T07:37:22;13.68;;;11.60;;
7108;SDS011;29079;41.930;25.558;2023-08-20T07:40:11;14.95;;;10.82;;
7108;SDS011;29079;41.930;25.558;2023-08-20T07:43:07;16.63;;;10.77;;
7108;SDS011;29079;41.930;25.558;2023-08-20T07:45:54;11.85;;;9.50;;
7108;SDS011;29079;41.930;25.558;2023-08-20T07:48:42;13.30;;;11.48;;
7108;SDS011;29079;41.930;25.558;2023-08-20T07:51:30;12.50;;;10.35;;
7108;SDS011;29079;41.930;25.558;2023-08-20T07:54:18;12.20;;;10.90;;
7108;SDS011;29079;41.930;25.558;2023-08-20T07:57:07;14.50;;;11.52;;
7108;SDS011;29079;41.930;25.558;2023-08-20T07:59:54;12.68;;;10.50;;
7108;SDS011;29079;41.930;25.558;2023-08-20T08:02:42;12.65;;;9.70;;
7108;SDS011;29079;41.930;25.558;2023-08-20T08:05:30;10.30;;;9.00;;
7108;SDS011;29079;41.930;25.558;2023-08-20T08:08:18;9.52;;;8.13;;
7108;SDS011;29079;41.930;25.558;2023-08-20T08:11:06;14.70;;;9.40;;
7108;SDS011;29079;41.930;25.558;2023-08-20T08:13:55;12.02;;;10.00;;
7108;SDS011;29079;41.930;25.558;2023-08-20T08:16:43;10.10;;;9.07;;
7108;SDS011;29079;41.930;25.558;2023-08-20T08:19:31;10.05;;;9.05;;
7108;SDS011;29079;41.930;25.558;2023-08-20T08:22:19;10.25;;;8.75;;
7108;SDS011;29079;41.930;25.558;2023-08-20T08:25:07;10.23;;;9.02;;
7108;SDS011;29079;41.930;25.558;2023-08-20T08:27:55;16.45;;;9.77;;
7108;SDS011;29079;41.930;25.558;2023-08-20T08:30:47;9.73;;;8.70;;
7108;SDS011;29079;41.930;25.558;2023-08-20T08:33:35;19.15;;;13.23;;
7108;SDS011;29079;41.930;25.558;2023-08-20T08:36:24;21.30;;;15.95;;
7108;SDS011;29079;41.930;25.558;2023-08-20T08:39:11;11.85;;;10.65;;
7108;SDS011;29079;41.930;25.558;2023-08-20T08:42:01;10.13;;;8.68;;
7108;SDS011;29079;41.930;25.558;2023-08-20T08:44:50;14.68;;;8.95;;
7108;SDS011;29079;41.930;25.558;2023-08-20T08:47:40;13.52;;;8.43;;
7108;SDS011;29079;41.930;25.558;2023-08-20T08:50:29;8.80;;;7.68;;
7108;SDS011;29079;41.930;25.558;2023-08-20T08:53:17;13.77;;;7.97;;
7108;SDS011;29079;41.930;25.558;2023-08-20T08:56:05;10.68;;;7.72;;
7108;SDS011;29079;41.930;25.558;2023-08-20T08:58:53;8.40;;;7.47;;
7108;SDS011;29079;41.930;25.558;2023-08-20T09:01:41;11.93;;;8.02;;
7108;SDS011;29079;41.930;25.558;2023-08-20T09:04:31;11.15;;;7.80;;
7108;SDS011;29079;41.930;25.558;2023-08-20T09:07:19;11.25;;;7.50;;
7108;SDS011;29079;41.930;25.558;2023-08-20T09:10:07;10.48;;;7.28;;
7108;SDS011;29079;41.930;25.558;2023-08-20T09:12:56;8.85;;;7.40;;
7108;SDS011;29079;41.930;25.558;2023-08-20T09:15:44;8.18;;;7.22;;
7108;SDS011;29079;41.930;25.558;2023-08-20T09:18:32;9.43;;;6.75;;
7108;SDS011;29079;41.930;25.558;2023-08-20T09:21:27;7.95;;;7.07;;
7108;SDS011;29079;41.930;25.558;2023-08-20T09:24:15;7.85;;;6.75;;
7108;SDS011;29079;41.930;25.558;2023-08-20T09:27:03;25.63;;;20.08;;
7108;SDS011;29079;41.930;25.558;2023-08-20T09:29:53;31.55;;;23.90;;
7108;SDS011;29079;41.930;25.558;2023-08-20T09:32:43;25.50;;;16.75;;
7108;SDS011;29079;41.930;25.558;2023-08-20T09:35:31;12.82;;;7.50;;
7108;SDS011;29079;41.930;25.558;2023-08-20T09:38:20;10.70;;;6.43;;
7108;SDS011;29079;41.930;25.558;2023-08-20T09:41:09;12.68;;;9.57;;
7108;SDS011;29079;41.930;25.558;2023-08-20T09:43:59;13.38;;;7.05;;
7108;SDS011;29079;41.930;25.558;2023-08-20T09:46:49;11.07;;;7.30;;
7108;SDS011;29079;41.930;25.558;2023-08-20T09:49:38;9.23;;;6.15;;
7108;SDS011;29079;41.930;25.558;2023-08-20T09:52:29;7.07;;;5.80;;
7108;SDS011;29079;41.930;25.558;2023-08-20T09:55:28;10.27;;;7.72;;
7108;SDS011;29079;41.930;25.558;2023-08-20T09:58:20;8.48;;;5.53;;
7108;SDS011;29079;41.930;25.558;2023-08-20T10:01:11;6.93;;;6.22;;
7108;SDS011;29079;41.930;25.558;2023-08-20T10:03:59;9.50;;;4.85;;
7108;SDS011;29079;41.930;25.558;2023-08-20T10:06:47;6.85;;;5.32;;
7108;SDS011;29079;41.930;25.558;2023-08-20T10:09:37;5.72;;;4.60;;
7108;SDS011;29079;41.930;25.558;2023-08-20T10:12:30;6.75;;;4.93;;
7108;SDS011;29079;41.930;25.558;2023-08-20T10:15:19;7.00;;;5.80;;
7108;SDS011;29079;41.930;25.558;2023-08-20T10:18:10;7.72;;;5.85;;
7108;SDS011;29079;41.930;25.558;2023-08-20T10:20:57;7.47;;;6.35;;
7108;SDS011;29079;41.930;25.558;2023-08-20T10:23:49;8.20;;;5.97;;
7108;SDS011;29079;41.930;25.558;2023-08-20T10:26:37;6.85;;;5.57;;
7108;SDS011;29079;41.930;25.558;2023-08-20T10:29:35;7.43;;;5.63;;
7108;SDS011;29079;41.930;25.558;2023-08-20T10:35:46;7.18;;;6.47;;
7108;SDS011;29079;41.930;25.558;2023-08-20T10:38:36;7.50;;;6.35;;
7108;SDS011;29079;41.930;25.558;2023-08-20T10:41:24;7.60;;;5.72;;
7108;SDS011;29079;41.930;25.558;2023-08-20T10:44:13;7.10;;;6.38;;
7108;SDS011;29079;41.930;25.558;2023-08-20T10:47:03;11.00;;;6.00;;
7108;SDS011;29079;41.930;25.558;2023-08-20T10:49:54;8.93;;;6.10;;
7108;SDS011;29079;41.930;25.558;2023-08-20T10:52:46;6.15;;;5.35;;
7108;SDS011;29079;41.930;25.558;2023-08-20T10:55:35;10.98;;;6.43;;
7108;SDS011;29079;41.930;25.558;2023-08-20T10:58:23;7.95;;;5.35;;
7108;SDS011;29079;41.930;25.558;2023-08-20T11:01:18;8.98;;;5.35;;
7108;SDS011;29079;41.930;25.558;2023-08-20T11:04:09;8.05;;;6.45;;
7108;SDS011;29079;41.930;25.558;2023-08-20T11:06:57;10.38;;;5.97;;
7108;SDS011;29079;41.930;25.558;2023-08-20T11:09:46;11.07;;;6.28;;
7108;SDS011;29079;41.930;25.558;2023-08-20T11:12:34;9.13;;;6.65;;
7108;SDS011;29079;41.930;25.558;2023-08-20T11:15:22;14.27;;;10.40;;
7108;SDS011;29079;41.930;25.558;2023-08-20T11:18:10;9.85;;;8.68;;
7108;SDS011;29079;41.930;25.558;2023-08-20T11:20:59;12.15;;;8.73;;
7108;SDS011;29079;41.930;25.558;2023-08-20T11:23:48;16.27;;;12.25;;
7108;SDS011;29079;41.930;25.558;2023-08-20T11:26:37;15.90;;;10.35;;
7108;SDS011;29079;41.930;25.558;2023-08-20T11:29:26;11.40;;;8.27;;
7108;SDS011;29079;41.930;25.558;2023-08-20T11:32:14;10.50;;;7.55;;
7108;SDS011;29079;41.930;25.558;2023-08-20T11:35:02;11.85;;;7.70;;
7108;SDS011;29079;41.930;25.558;2023-08-20T11:37:52;10.88;;;6.85;;
7108;SDS011;29079;41.930;25.558;2023-08-20T11:40:40;7.70;;;5.88;;
7108;SDS011;29079;41.930;25.558;2023-08-20T11:43:28;10.50;;;6.20;;
7108;SDS011;29079;41.930;25.558;2023-08-20T11:46:17;8.90;;;5.93;;
7108;SDS011;29079;41.930;25.558;2023-08-20T11:49:07;13.18;;;6.45;;
7108;SDS011;29079;41.930;25.558;2023-08-20T11:51:56;7.85;;;5.93;;
7108;SDS011;29079;41.930;25.558;2023-08-20T11:54:45;8.15;;;6.10;;
7108;SDS011;29079;41.930;25.558;2023-08-20T11:57:34;9.50;;;5.90;;
7108;SDS011;29079;41.930;25.558;2023-08-20T12:00:26;7.90;;;6.90;;
7108;SDS011;29079;41.930;25.558;2023-08-20T12:03:15;8.38;;;6.57;;
7108;SDS011;29079;41.930;25.558;2023-08-20T12:06:16;8.10;;;6.65;;
7108;SDS011;29079;41.930;25.558;2023-08-20T12:09:18;7.63;;;6.75;;
7108;SDS011;29079;41.930;25.558;2023-08-20T12:12:08;10.32;;;6.38;;
7108;SDS011;29079;41.930;25.558;2023-08-20T12:14:56;8.82;;;5.97;;
7108;SDS011;29079;41.930;25.558;2023-08-20T12:17:54;8.75;;;6.18;;
7108;SDS011;29079;41.930;25.558;2023-08-20T12:20:46;6.53;;;5.93;;
7108;SDS011;29079;41.930;25.558;2023-08-20T12:23:33;9.30;;;6.57;;
7108;SDS011;29079;41.930;25.558;2023-08-20T12:26:21;10.95;;;5.93;;
7108;SDS011;29079;41.930;25.558;2023-08-20T12:29:10;7.45;;;5.85;;
7108;SDS011;29079;41.930;25.558;2023-08-20T12:31:58;6.90;;;6.30;;
7108;SDS011;29079;41.930;25.558;2023-08-20T12:34:47;7.35;;;6.00;;
7108;SDS011;29079;41.930;25.558;2023-08-20T12:37:34;7.65;;;5.70;;
7108;SDS011;29079;41.930;25.558;2023-08-20T12:40:23;6.65;;;5.95;;
7108;SDS011;29079;41.930;25.558;2023-08-20T12:43:10;8.20;;;5.78;;
7108;SDS011;29079;41.930;25.558;2023-08-20T12:46:00;7.10;;;5.90;;
7108;SDS011;29079;41.930;25.558;2023-08-20T12:48:48;7.57;;;6.30;;
7108;SDS011;29079;41.930;25.558;2023-08-20T12:51:36;8.32;;;5.80;;
7108;SDS011;29079;41.930;25.558;2023-08-20T12:54:24;8.82;;;5.75;;
7108;SDS011;29079;41.930;25.558;2023-08-20T12:57:11;8.27;;;6.05;;
7108;SDS011;29079;41.930;25.558;2023-08-20T12:59:59;6.55;;;5.88;;
7108;SDS011;29079;41.930;25.558;2023-08-20T13:02:48;8.68;;;6.25;;
7108;SDS011;29079;41.930;25.558;2023-08-20T13:05:37;6.82;;;5.55;;
7108;SDS011;29079;41.930;25.558;2023-08-20T13:08:26;10.93;;;7.82;;
7108;SDS011;29079;41.930;25.558;2023-08-20T13:11:16;11.73;;;10.35;;
7108;SDS011;29079;41.930;25.558;2023-08-20T13:14:07;19.38;;;13.60;;
7108;SDS011;29079;41.930;25.558;2023-08-20T13:16:56;15.15;;;10.30;;
7108;SDS011;29079;41.930;25.558;2023-08-20T13:19:45;9.90;;;7.40;;
7108;SDS011;29079;41.930;25.558;2023-08-20T13:22:33;8.40;;;7.47;;
7108;SDS011;29079;41.930;25.558;2023-08-20T13:25:21;16.35;;;12.63;;
7108;SDS011;29079;41.930;25.558;2023-08-20T13:28:08;11.20;;;10.00;;
7108;SDS011;29079;41.930;25.558;2023-08-20T13:30:56;8.95;;;8.05;;
7108;SDS011;29079;41.930;25.558;2023-08-20T13:33:44;18.02;;;14.18;;
7108;SDS011;29079;41.930;25.558;2023-08-20T13:36:33;16.33;;;14.05;;
7108;SDS011;29079;41.930;25.558;2023-08-20T13:39:24;16.83;;;14.25;;
7108;SDS011;29079;41.930;25.558;2023-08-20T13:42:12;15.27;;;12.13;;
7108;SDS011;29079;41.930;25.558;2023-08-20T13:45:00;17.85;;;14.00;;
7108;SDS011;29079;41.930;25.558;2023-08-20T13:47:47;11.45;;;9.93;;
7108;SDS011;29079;41.930;25.558;2023-08-20T13:50:35;10.05;;;8.95;;
7108;SDS011;29079;41.930;25.558;2023-08-20T13:53:24;9.20;;;8.02;;
7108;SDS011;29079;41.930;25.558;2023-08-20T13:56:12;9.45;;;8.55;;
7108;SDS011;29079;41.930;25.558;2023-08-20T13:59:00;9.88;;;8.50;;
7108;SDS011;29079;41.930;25.558;2023-08-20T14:01:48;11.57;;;8.55;;
7108;SDS011;29079;41.930;25.558;2023-08-20T14:04:35;8.85;;;8.00;;
7108;SDS011;29079;41.930;25.558;2023-08-20T14:07:24;10.20;;;9.20;;
7108;SDS011;29079;41.930;25.558;2023-08-20T14:10:13;10.50;;;8.95;;
7108;SDS011;29079;41.930;25.558;2023-08-20T14:13:02;10.25;;;9.13;;
7108;SDS011;29079;41.930;25.558;2023-08-20T14:15:50;15.23;;;9.07;;
7108;SDS011;29079;41.930;25.558;2023-08-20T14:18:38;11.45;;;10.20;;
7108;SDS011;29079;41.930;25.558;2023-08-20T14:21:25;27.17;;;21.23;;
7108;SDS011;29079;41.930;25.558;2023-08-20T14:24:13;23.17;;;16.20;;
7108;SDS011;29079;41.930;25.558;2023-08-20T14:27:05;16.23;;;11.77;;
7108;SDS011;29079;41.930;25.558;2023-08-20T14:29:54;11.45;;;10.25;;
7108;SDS011;29079;41.930;25.558;2023-08-20T14:32:41;10.65;;;9.40;;
7108;SDS011;29079;41.930;25.558;2023-08-20T14:35:30;10.07;;;8.68;;
7108;SDS011;29079;41.930;25.558;2023-08-20T14:38:18;11.52;;;8.85;;
7108;SDS011;29079;41.930;25.558;2023-08-20T14:41:05;9.02;;;8.23;;
7108;SDS011;29079;41.930;25.558;2023-08-20T14:43:55;12.35;;;7.47;;
7108;SDS011;29079;41.930;25.558;2023-08-20T14:46:42;8.77;;;7.38;;
7108;SDS011;29079;41.930;25.558;2023-08-20T14:49:31;7.70;;;7.00;;
7108;SDS011;29079;41.930;25.558;2023-08-20T14:52:18;10.52;;;8.10;;
7108;SDS011;29079;41.930;25.558;2023-08-20T14:55:06;8.70;;;7.07;;
7108;SDS011;29079;41.930;25.558;2023-08-20T14:57:56;8.80;;;7.20;;
7108;SDS011;29079;41.930;25.558;2023-08-20T15:00:45;9.55;;;8.43;;
7108;SDS011;29079;41.930;25.558;2023-08-20T15:03:35;7.60;;;6.80;;
7108;SDS011;29079;41.930;25.558;2023-08-20T15:06:23;10.70;;;8.57;;
7108;SDS011;29079;41.930;25.558;2023-08-20T15:09:12;20.33;;;16.30;;
7108;SDS011;29079;41.930;25.558;2023-08-20T15:12:02;14.43;;;11.20;;
7108;SDS011;29079;41.930;25.558;2023-08-20T15:14:50;15.90;;;13.93;;
7108;SDS011;29079;41.930;25.558;2023-08-20T15:17:40;11.80;;;10.60;;
7108;SDS011;29079;41.930;25.558;2023-08-20T15:20:28;10.70;;;9.32;;
7108;SDS011;29079;41.930;25.558;2023-08-20T15:23:16;10.07;;;8.55;;
7108;SDS011;29079;41.930;25.558;2023-08-20T15:26:04;9.38;;;8.02;;
7108;SDS011;29079;41.930;25.558;2023-08-20T15:28:52;9.85;;;8.00;;
7108;SDS011;29079;41.930;25.558;2023-08-20T15:31:39;10.15;;;8.25;;
7108;SDS011;29079;41.930;25.558;2023-08-20T15:34:29;10.70;;;7.60;;
7108;SDS011;29079;41.930;25.558;2023-08-20T15:37:16;8.15;;;7.35;;
7108;SDS011;29079;41.930;25.558;2023-08-20T15:40:05;10.52;;;8.20;;
7108;SDS011;29079;41.930;25.558;2023-08-20T15:42:58;25.48;;;16.92;;
7108;SDS011;29079;41.930;25.558;2023-08-20T15:45:46;15.35;;;11.40;;
7108;SDS011;29079;41.930;25.558;2023-08-20T15:48:34;26.63;;;12.57;;
7108;SDS011;29079;41.930;25.558;2023-08-20T15:51:23;14.65;;;9.32;;
7108;SDS011;29079;41.930;25.558;2023-08-20T15:54:11;18.40;;;12.95;;
7108;SDS011;29079;41.930;25.558;2023-08-20T15:56:59;36.78;;;13.35;;
7108;SDS011;29079;41.930;25.558;2023-08-20T15:59:47;18.58;;;11.25;;
7108;SDS011;29079;41.930;25.558;2023-08-20T16:02:35;11.60;;;9.93;;
7108;SDS011;29079;41.930;25.558;2023-08-20T16:05:23;16.88;;;9.77;;
7108;SDS011;29079;41.930;25.558;2023-08-20T16:08:12;12.68;;;8.60;;
7108;SDS011;29079;41.930;25.558;2023-08-20T16:11:00;13.30;;;9.20;;
7108;SDS011;29079;41.930;25.558;2023-08-20T16:13:48;14.93;;;10.32;;
7108;SDS011;29079;41.930;25.558;2023-08-20T16:16:36;12.23;;;9.07;;
7108;SDS011;29079;41.930;25.558;2023-08-20T16:19:24;9.35;;;8.35;;
7108;SDS011;29079;41.930;25.558;2023-08-20T16:22:12;13.32;;;9.60;;
7108;SDS011;29079;41.930;25.558;2023-08-20T16:25:01;12.82;;;11.15;;
7108;SDS011;29079;41.930;25.558;2023-08-20T16:27:51;14.23;;;11.00;;
7108;SDS011;29079;41.930;25.558;2023-08-20T16:30:39;11.75;;;10.55;;
7108;SDS011;29079;41.930;25.558;2023-08-20T16:33:27;10.15;;;8.18;;
7108;SDS011;29079;41.930;25.558;2023-08-20T16:36:15;12.68;;;10.93;;
7108;SDS011;29079;41.930;25.558;2023-08-20T16:39:03;8.80;;;7.85;;
7108;SDS011;29079;41.930;25.558;2023-08-20T16:41:52;11.65;;;10.48;;